Time;durP1;ratioP1;P1;durP2;ratioP2;P2;SDS_P1;SDS_P2;PMS_P1;PMS_P2;Temp;Humidity;BMP_temperature;BMP_pressure;BME280_temperature;BME280_humidity;BME280_pressure;Samples;Min_cycle;Max_cycle;Signal;HPM_P1;HPM_P2
2023/07/25 00:00:24;;;;;;;8.00;1.52;;;;;;;12.40;53.33;100408.16;4965480;28;20044;-65
2023/07/25 00:02:57;;;;;;;7.47;1.65;;;;;;;12.41;53.14;100407.25;4966480;28;20034;-68
2023/07/25 00:05:23;;;;;;;5.80;0.90;;;;;;;12.47;53.05;100401.66;4961219;28;20124;-68
2023/07/25 00:07:48;;;;;;;2.47;0.98;;;;;;;12.48;52.91;100411.22;4966191;28;20038;-68
2023/07/25 00:10:14;;;;;;;7.85;0.93;;;;;;;12.47;52.98;100409.53;4970345;28;20159;-68
2023/07/25 00:12:40;;;;;;;2.80;0.85;;;;;;;12.52;52.81;100409.28;4961781;28;20058;-69
2023/07/25 00:15:06;;;;;;;3.40;1.67;;;;;;;12.41;53.26;100408.06;4969169;28;20038;-69
2023/07/25 00:17:31;;;;;;;2.28;0.93;;;;;;;12.39;53.13;100409.94;4965474;28;20156;-68
2023/07/25 00:19:57;;;;;;;10.10;1.45;;;;;;;12.32;53.10;100407.75;4967424;28;20251;-70
2023/07/25 00:22:23;;;;;;;6.22;1.20;;;;;;;12.22;53.50;100410.00;4966168;28;20037;-69
2023/07/25 00:24:49;;;;;;;3.30;0.82;;;;;;;12.14;53.51;100415.66;4968815;28;20158;-69
2023/07/25 00:27:14;;;;;;;6.22;1.00;;;;;;;12.10;53.42;100408.91;4969471;28;20473;-69
2023/07/25 00:29:40;;;;;;;2.40;1.00;;;;;;;11.94;53.98;100413.28;4948410;28;20054;-69
2023/07/25 00:32:06;;;;;;;7.63;1.15;;;;;;;11.88;54.23;100407.41;4950641;28;20026;-69
2023/07/25 00:34:32;;;;;;;2.97;0.82;;;;;;;11.86;54.13;100414.50;4965387;28;20034;-69
2023/07/25 00:36:57;;;;;;;5.03;1.38;;;;;;;11.85;53.91;100415.44;4965719;28;20449;-69
2023/07/25 00:39:23;;;;;;;2.85;1.25;;;;;;;11.77;54.05;100408.88;4965584;28;20061;-69
2023/07/25 00:41:48;;;;;;;5.60;1.20;;;;;;;11.74;54.21;100399.44;4949970;28;20427;-69
2023/07/25 00:44:14;;;;;;;6.00;1.30;;;;;;;11.64;54.47;100400.81;4970135;28;20555;-69
2023/07/25 00:46:41;;;;;;;3.38;0.98;;;;;;;11.57;54.89;100400.28;4962929;28;20042;-69
2023/07/25 00:49:09;;;;;;;4.43;1.35;;;;;;;11.59;55.04;100406.28;4969441;28;20401;-69
2023/07/25 00:51:35;;;;;;;5.15;1.58;;;;;;;11.68;55.00;100402.34;4965718;28;20132;-69
2023/07/25 00:54:01;;;;;;;6.15;1.25;;;;;;;11.75;54.86;100408.97;4973228;28;20088;-69
2023/07/25 00:56:27;;;;;;;9.13;1.27;;;;;;;11.88;54.42;100404.81;4967488;28;20491;-69
2023/07/25 00:58:53;;;;;;;3.13;0.98;;;;;;;11.95;54.34;100401.88;4970748;28;20817;-70
2023/07/25 01:01:20;;;;;;;7.40;1.58;;;;;;;11.96;54.13;100403.56;4968608;28;20022;-70
2023/07/25 01:03:45;;;;;;;2.00;0.82;;;;;;;12.01;53.88;100407.63;4968736;28;20034;-69
2023/07/25 01:06:13;;;;;;;5.85;1.15;;;;;;;11.90;53.67;100415.19;4970294;28;20038;-69
2023/07/25 01:08:55;;;;;;;2.72;1.00;;;;;;;11.98;53.41;100406.97;4965452;28;20070;-68
2023/07/25 01:11:22;;;;;;;2.95;0.98;;;;;;;12.04;53.28;100401.38;4969621;28;20035;-68
2023/07/25 01:13:48;;;;;;;5.63;1.02;;;;;;;11.91;53.38;100405.56;4953824;28;20274;-68
2023/07/25 01:16:19;;;;;;;2.08;0.77;;;;;;;11.83;53.39;100405.97;4969838;28;20048;-69
2023/07/25 01:18:45;;;;;;;6.38;1.10;;;;;;;11.78;53.67;100400.16;4968599;28;20082;-69
2023/07/25 01:21:11;;;;;;;4.65;1.25;;;;;;;11.72;53.59;100406.50;4971859;28;20034;-69
2023/07/25 01:23:38;;;;;;;6.13;0.93;;;;;;;11.69;53.57;100409.31;4967863;28;20030;-69
2023/07/25 01:26:03;;;;;;;2.60;0.80;;;;;;;11.61;53.88;100416.69;4972848;28;20517;-69
2023/07/25 01:28:30;;;;;;;7.50;1.13;;;;;;;11.54;53.85;100417.94;4949504;28;20134;-69
2023/07/25 01:30:56;;;;;;;3.10;0.85;;;;;;;11.45;54.35;100420.09;4971062;28;20047;-71
2023/07/25 01:33:22;;;;;;;7.15;0.55;;;;;;;11.46;54.19;100419.19;4970049;28;20076;-69
2023/07/25 01:35:47;;;;;;;9.60;1.70;;;;;;;11.43;54.24;100429.78;4965642;28;20170;-69
2023/07/25 01:38:13;;;;;;;2.63;0.47;;;;;;;11.35;54.47;100426.72;4951487;28;20165;-69
2023/07/25 01:40:41;;;;;;;3.75;0.70;;;;;;;11.26;54.68;100427.16;4942794;28;20125;-69
2023/07/25 01:43:10;;;;;;;3.13;0.88;;;;;;;11.17;54.63;100422.41;4954102;28;20031;-69
2023/07/25 01:45:36;;;;;;;4.38;0.82;;;;;;;11.13;54.79;100431.31;4938533;28;20042;-70
2023/07/25 01:48:01;;;;;;;2.05;0.75;;;;;;;11.14;54.69;100427.78;4944035;28;20034;-69
2023/07/25 01:50:28;;;;;;;7.05;0.93;;;;;;;11.02;55.02;100419.63;4948582;28;20489;-68
2023/07/25 01:52:54;;;;;;;6.75;1.17;;;;;;;10.90;55.49;100419.38;4932872;28;20035;-69
2023/07/25 01:55:20;;;;;;;4.13;0.50;;;;;;;11.02;54.98;100418.78;4944450;28;20053;-67
2023/07/25 01:57:45;;;;;;;6.85;1.02;;;;;;;10.99;54.90;100417.16;4963891;28;20042;-68
2023/07/25 02:00:11;;;;;;;4.43;1.42;;;;;;;10.99;54.68;100411.09;4970787;28;20030;-68
2023/07/25 02:02:40;;;;;;;3.75;0.60;;;;;;;10.94;54.75;100413.91;4967494;28;20038;-68
2023/07/25 02:05:05;;;;;;;5.80;1.20;;;;;;;10.84;54.93;100421.38;4968450;28;20034;-67
2023/07/25 02:07:32;;;;;;;2.35;0.63;;;;;;;10.88;54.83;100422.06;4967062;28;20026;-68
2023/07/25 02:09:57;;;;;;;3.17;0.55;;;;;;;10.78;54.96;100415.56;4967526;28;20031;-65
2023/07/25 02:12:23;;;;;;;2.15;0.55;;;;;;;10.74;54.98;100419.25;4969747;28;20092;-70
2023/07/25 02:14:48;;;;;;;3.75;0.65;;;;;;;10.70;54.82;100422.91;4956345;28;20047;-70
2023/07/25 02:17:14;;;;;;;6.30;1.00;;;;;;;10.68;55.14;100430.81;4957055;28;20617;-70
2023/07/25 02:19:39;;;;;;;3.45;0.80;;;;;;;10.72;54.64;100432.38;4952322;28;20042;-70
2023/07/25 02:22:05;;;;;;;2.08;0.73;;;;;;;10.53;54.93;100427.19;4970501;28;20034;-69
2023/07/25 02:24:31;;;;;;;2.47;0.77;;;;;;;10.46;55.28;100427.53;4969351;28;20055;-69
2023/07/25 02:26:57;;;;;;;6.47;1.08;;;;;;;10.42;55.24;100432.06;4968816;28;21114;-69
2023/07/25 02:29:23;;;;;;;3.13;0.77;;;;;;;10.47;55.02;100430.06;4968751;28;20042;-68
2023/07/25 02:31:48;;;;;;;4.22;0.70;;;;;;;10.45;55.16;100429.28;4966206;28;20030;-70
2023/07/25 02:34:17;;;;;;;4.75;0.65;;;;;;;10.43;54.84;100431.13;4974464;28;20952;-69
2023/07/25 02:36:43;;;;;;;7.75;0.90;;;;;;;10.40;55.24;100428.69;4949460;28;20162;-69
2023/07/25 02:39:08;;;;;;;3.42;1.42;;;;;;;10.29;55.65;100433.53;4969685;28;20072;-69
2023/07/25 02:41:35;;;;;;;5.38;0.65;;;;;;;10.13;56.31;100429.03;4966255;28;21060;-70
2023/07/25 02:44:01;;;;;;;5.30;0.98;;;;;;;10.12;56.33;100429.91;4972692;28;20177;-67
2023/07/25 02:46:26;;;;;;;5.13;1.55;;;;;;;10.25;55.80;100427.59;4965350;28;20055;-68
2023/07/25 02:48:52;;;;;;;5.43;1.38;;;;;;;10.14;56.08;100435.09;4968328;28;20121;-67
2023/07/25 02:51:17;;;;;;;6.03;1.48;;;;;;;10.02;56.47;100426.03;4969819;28;20512;-68
2023/07/25 02:53:43;;;;;;;4.53;0.60;;;;;;;10.01;56.50;100434.78;4968004;28;20058;-68
2023/07/25 02:56:09;;;;;;;6.93;1.70;;;;;;;10.04;56.15;100426.81;4970285;28;20125;-67
2023/07/25 02:58:35;;;;;;;7.40;1.35;;;;;;;9.79;56.73;100427.91;4965732;28;20409;-68
2023/07/25 03:01:00;;;;;;;8.60;1.50;;;;;;;9.90;56.26;100424.84;4947416;28;20073;-68
2023/07/25 03:03:26;;;;;;;3.38;1.25;;;;;;;9.97;56.10;100428.03;4931010;28;20445;-68
2023/07/25 03:05:51;;;;;;;4.03;1.40;;;;;;;9.83;56.87;100426.00;4940426;28;20542;-67
2023/07/25 03:08:17;;;;;;;4.47;1.08;;;;;;;9.96;56.23;100426.31;4948473;28;20086;-67
2023/07/25 03:10:42;;;;;;;5.28;1.50;;;;;;;9.92;56.29;100429.97;4945718;28;20039;-67
2023/07/25 03:13:08;;;;;;;2.85;1.48;;;;;;;9.84;56.89;100432.09;4949149;28;20504;-68
2023/07/25 03:15:34;;;;;;;2.88;1.17;;;;;;;9.70;57.17;100430.91;4946328;28;20105;-68
2023/07/25 03:17:59;;;;;;;9.07;1.30;;;;;;;9.86;57.14;100425.88;4949050;28;20050;-68
2023/07/25 03:20:25;;;;;;;4.53;1.77;;;;;;;9.86;56.94;100420.66;4957893;28;20037;-69
2023/07/25 03:22:51;;;;;;;7.65;1.60;;;;;;;10.01;56.38;100421.72;4968259;28;20030;-74
2023/07/25 03:25:18;;;;;;;6.68;0.90;;;;;;;9.89;56.84;100424.91;4952665;28;20430;-71
2023/07/25 03:27:44;;;;;;;5.95;1.20;;;;;;;9.76;57.17;100429.75;4931388;28;20270;-72
2023/07/25 03:30:09;;;;;;;4.28;1.50;;;;;;;9.94;56.81;100434.19;4949760;28;20679;-72
2023/07/25 03:32:35;;;;;;;5.50;1.42;;;;;;;10.02;56.47;100426.88;4946980;28;20034;-74
2023/07/25 03:35:00;;;;;;;4.03;1.05;;;;;;;10.13;56.33;100422.97;4947065;28;20038;-71
2023/07/25 03:37:26;;;;;;;9.32;1.17;;;;;;;10.06;56.43;100430.22;4945949;28;20044;-72
2023/07/25 03:39:53;;;;;;;3.17;1.17;;;;;;;10.20;56.35;100435.66;4940150;28;21029;-72
2023/07/25 03:42:18;;;;;;;2.30;0.90;;;;;;;10.25;55.86;100440.66;4964924;28;20065;-71
2023/07/25 03:44:44;;;;;;;3.08;1.23;;;;;;;10.17;56.35;100435.81;4962892;28;20038;-72
2023/07/25 03:47:09;;;;;;;1.77;0.70;;;;;;;10.41;55.89;100433.84;4968901;28;20045;-72
2023/07/25 03:49:37;;;;;;;6.70;1.15;;;;;;;10.19;56.24;100441.81;4940691;28;20143;-72
2023/07/25 03:52:02;;;;;;;4.95;1.02;;;;;;;10.38;55.79;100433.97;4949504;28;20493;-72
2023/07/25 03:54:28;;;;;;;6.25;1.25;;;;;;;10.54;55.60;100439.31;4931770;28;20070;-71
2023/07/25 03:56:54;;;;;;;8.68;1.05;;;;;;;10.51;55.60;100436.88;4945783;28;20035;-72
2023/07/25 03:59:19;;;;;;;6.05;1.00;;;;;;;10.56;55.19;100440.09;4955435;28;20038;-67
2023/07/25 04:01:45;;;;;;;3.17;0.88;;;;;;;10.48;55.62;100447.47;4962338;28;20034;-68
2023/07/25 04:04:13;;;;;;;4.80;1.23;;;;;;;10.53;55.80;100453.31;4963734;28;20027;-67
2023/07/25 04:06:38;;;;;;;7.57;1.38;;;;;;;10.35;55.78;100443.72;4943878;28;20556;-68
2023/07/25 04:09:04;;;;;;;2.55;1.13;;;;;;;10.29;56.29;100444.00;4962151;28;20062;-67
2023/07/25 04:11:30;;;;;;;3.63;0.93;;;;;;;10.54;56.33;100452.38;4945204;28;20069;-67
2023/07/25 04:13:56;;;;;;;6.53;1.05;;;;;;;10.67;55.89;100454.44;4946517;28;20051;-67
2023/07/25 04:16:22;;;;;;;2.28;0.88;;;;;;;10.48;55.99;100451.81;4961134;28;20073;-66
2023/07/25 04:18:48;;;;;;;7.85;1.33;;;;;;;10.57;56.02;100454.00;4949780;28;20191;-67
2023/07/25 04:21:13;;;;;;;4.63;0.75;;;;;;;10.43;56.48;100459.88;4967925;28;20027;-67
2023/07/25 04:23:39;;;;;;;7.13;1.17;;;;;;;10.75;55.86;100463.63;4962618;28;20038;-67
2023/07/25 04:26:04;;;;;;;3.63;0.90;;;;;;;10.80;55.75;100463.41;4968494;28;20030;-68
2023/07/25 04:28:30;;;;;;;6.80;0.80;;;;;;;10.86;55.33;100468.38;4963878;28;20038;-67
2023/07/25 04:30:55;;;;;;;4.25;0.82;;;;;;;11.03;55.84;100467.53;4965876;28;20230;-67
2023/07/25 04:33:21;;;;;;;7.63;1.40;;;;;;;11.00;55.72;100457.25;4968221;28;20034;-67
2023/07/25 04:35:46;;;;;;;2.45;0.90;;;;;;;11.08;55.73;100456.84;4962811;28;20066;-71
2023/07/25 04:38:13;;;;;;;4.25;1.05;;;;;;;11.25;55.83;100452.50;4954225;28;20250;-70
2023/07/25 04:40:39;;;;;;;5.15;0.70;;;;;;;11.34;55.76;100456.41;4965576;28;20283;-69
2023/07/25 04:43:04;;;;;;;4.85;0.98;;;;;;;11.42;55.87;100461.28;4966702;28;21124;-69
2023/07/25 04:45:30;;;;;;;3.70;0.90;;;;;;;11.55;55.77;100464.13;4949864;28;20038;-69
2023/07/25 04:47:55;;;;;;;2.72;0.80;;;;;;;11.62;55.73;100457.63;4945325;28;20043;-68
2023/07/25 04:50:21;;;;;;;3.80;0.93;;;;;;;11.68;55.69;100454.72;4947226;28;20082;-68
2023/07/25 04:52:46;;;;;;;6.22;0.90;;;;;;;11.72;56.03;100461.50;4945594;28;20126;-70
2023/07/25 04:55:12;;;;;;;4.65;0.60;;;;;;;11.72;55.97;100466.72;4957397;28;20414;-70
2023/07/25 04:57:38;;;;;;;3.97;0.63;;;;;;;11.66;56.64;100474.88;4961919;28;21000;-74
2023/07/25 05:00:05;;;;;;;6.00;0.73;;;;;;;11.65;56.62;100481.06;4964840;28;20042;-71
2023/07/25 05:02:30;;;;;;;6.57;0.65;;;;;;;11.58;56.81;100477.06;4968638;28;20667;-70
2023/07/25 05:04:58;;;;;;;3.10;0.80;;;;;;;11.52;57.22;100479.97;4978215;28;20400;-70
2023/07/25 05:07:24;;;;;;;5.78;0.70;;;;;;;11.33;57.80;100487.88;4964837;28;20535;-71
2023/07/25 05:09:49;;;;;;;5.93;0.82;;;;;;;11.43;57.54;100483.91;4962884;28;20053;-71
2023/07/25 05:12:17;;;;;;;12.07;1.42;;;;;;;11.43;57.90;100486.53;4965510;28;20451;-70
2023/07/25 05:14:45;;;;;;;3.75;0.93;;;;;;;11.57;57.57;100488.44;4963992;28;20030;-71
2023/07/25 05:17:10;;;;;;;4.53;0.50;;;;;;;11.51;57.79;100488.75;4977567;28;20030;-70
2023/07/25 05:19:36;;;;;;;5.13;0.60;;;;;;;11.44;58.26;100476.00;4951045;28;20035;-70
2023/07/25 05:22:01;;;;;;;3.47;0.75;;;;;;;11.28;58.74;100490.72;4945856;28;20401;-71
2023/07/25 05:24:27;;;;;;;7.28;0.95;;;;;;;11.33;58.88;100480.91;4949636;28;20586;-70
2023/07/25 05:26:52;;;;;;;8.95;0.90;;;;;;;11.23;59.05;100475.25;4963930;28;20049;-71
2023/07/25 05:29:20;;;;;;;4.32;0.63;;;;;;;11.47;58.48;100480.22;4966598;28;20463;-70
2023/07/25 05:31:46;;;;;;;5.90;1.58;;;;;;;11.35;58.93;100481.69;4962068;28;20062;-69
2023/07/25 05:34:12;;;;;;;2.88;0.65;;;;;;;11.52;59.07;100475.59;4963731;28;20505;-70
2023/07/25 05:36:37;;;;;;;4.03;1.00;;;;;;;11.56;58.56;100476.28;4948029;28;20460;-67
2023/07/25 05:39:03;;;;;;;7.18;1.00;;;;;;;11.74;58.94;100470.13;4951203;28;20035;-71
2023/07/25 05:41:28;;;;;;;6.35;1.55;;;;;;;11.98;58.25;100477.66;4951164;28;20438;-71
2023/07/25 05:43:54;;;;;;;6.47;2.15;;;;;;;12.18;58.06;100464.38;4950072;28;20046;-72
2023/07/25 05:46:19;;;;;;;8.25;2.10;;;;;;;12.39;58.21;100470.22;4970787;28;20030;-71
2023/07/25 05:48:45;;;;;;;5.88;0.98;;;;;;;12.72;57.17;100463.25;4966733;28;20128;-72
2023/07/25 05:51:12;;;;;;;7.13;1.10;;;;;;;12.75;56.45;100473.56;4948916;28;20074;-71
2023/07/25 05:53:37;;;;;;;4.13;1.33;;;;;;;12.63;56.87;100469.81;4948417;28;20133;-71
2023/07/25 05:56:03;;;;;;;3.08;1.02;;;;;;;12.73;56.87;100475.41;4949945;28;20165;-72
2023/07/25 05:58:30;;;;;;;6.97;1.42;;;;;;;12.79;57.12;100475.09;4949491;28;20031;-71
2023/07/25 06:00:55;;;;;;;2.00;1.00;;;;;;;12.81;55.97;100475.84;4943460;28;20431;-71
2023/07/25 06:03:21;;;;;;;3.28;0.77;;;;;;;12.78;57.20;100478.63;4946453;28;20069;-71
2023/07/25 06:05:47;;;;;;;3.10;0.88;;;;;;;13.28;56.73;100482.81;4944274;28;20413;-71
2023/07/25 06:08:13;;;;;;;6.00;1.48;;;;;;;13.75;54.93;100471.31;4943066;28;20114;-70
2023/07/25 06:10:39;;;;;;;5.15;0.80;;;;;;;14.38;52.23;100470.09;4963152;28;20062;-70
2023/07/25 06:13:04;;;;;;;4.95;0.80;;;;;;;14.90;51.17;100468.59;4968887;28;20034;-71
2023/07/25 06:15:36;;;;;;;5.43;0.80;;;;;;;14.98;49.67;100476.84;4963518;28;20069;-71
2023/07/25 06:18:04;;;;;;;7.55;1.15;;;;;;;15.31;49.36;100467.72;4958289;28;20041;-71
2023/07/25 06:20:32;;;;;;;2.63;0.68;;;;;;;15.73;49.13;100476.31;4969589;28;20041;-70
2023/07/25 06:23:01;;;;;;;6.70;1.15;;;;;;;15.46;49.72;100479.88;4955412;28;20038;-69
2023/07/25 06:25:27;;;;;;;4.00;0.68;;;;;;;14.91;49.82;100488.72;4954248;28;20038;-68
2023/07/25 06:27:53;;;;;;;6.63;0.63;;;;;;;14.94;51.36;100483.25;4951221;28;20606;-69
2023/07/25 06:30:20;;;;;;;1.80;0.60;;;;;;;15.12;51.98;100475.94;4944091;28;20058;-70
2023/07/25 06:32:45;;;;;;;1.52;0.73;;;;;;;16.06;50.07;100483.69;4948651;28;20571;-70
2023/07/25 06:35:11;;;;;;;4.18;0.75;;;;;;;16.11;49.27;100471.06;4956254;28;20042;-70
2023/07/25 06:37:38;;;;;;;7.55;0.73;;;;;;;16.20;49.65;100470.41;4949303;28;20038;-70
2023/07/25 06:40:05;;;;;;;3.78;0.47;;;;;;;17.14;48.44;100471.59;4984130;28;20034;-70
2023/07/25 06:42:30;;;;;;;10.70;3.03;;;;;;;18.97;44.73;100469.81;4968686;28;20507;-70
2023/07/25 06:44:56;;;;;;;5.47;3.00;;;;;;;19.04;43.40;100473.63;4954084;28;20038;-70
2023/07/25 06:47:23;;;;;;;2.97;0.90;;;;;;;20.61;41.91;100465.56;4964816;28;20030;-70
2023/07/25 06:49:48;;;;;;;1.92;0.88;;;;;;;22.46;35.57;100459.97;4966761;28;20421;-70
2023/07/25 06:52:15;;;;;;;3.10;0.50;;;;;;;23.52;34.14;100460.13;4967907;28;20455;-70
2023/07/25 06:54:42;;;;;;;2.67;0.43;;;;;;;23.95;32.77;100461.91;4969159;28;20070;-69
2023/07/25 06:57:08;;;;;;;3.42;0.40;;;;;;;23.91;32.76;100465.91;4966688;28;20058;-69
2023/07/25 06:59:33;;;;;;;4.53;0.40;;;;;;;23.91;32.36;100454.41;4964276;28;20054;-70
2023/07/25 07:01:59;;;;;;;5.10;0.30;;;;;;;24.12;31.96;100462.81;4953597;28;20030;-71
2023/07/25 07:04:25;;;;;;;3.30;0.20;;;;;;;24.54;30.20;100455.81;4964298;28;20030;-71
2023/07/25 07:06:50;;;;;;;4.53;0.40;;;;;;;24.52;31.16;100457.81;4952386;28;20417;-70
2023/07/25 07:09:16;;;;;;;1.42;0.25;;;;;;;25.96;27.85;100454.63;4963901;28;20120;-70
2023/07/25 07:11:41;;;;;;;4.28;0.52;;;;;;;25.53;27.83;100454.06;4965595;28;20041;-69
2023/07/25 07:14:07;;;;;;;3.42;0.70;;;;;;;24.87;28.04;100448.69;4967064;28;20237;-70
2023/07/25 07:16:33;;;;;;;4.55;0.30;;;;;;;25.02;28.78;100459.59;4968042;28;20128;-71
2023/07/25 07:18:59;;;;;;;2.05;0.30;;;;;;;25.80;28.97;100464.38;4968016;28;20651;-69
2023/07/25 07:21:24;;;;;;;9.45;0.20;;;;;;;26.26;26.24;100453.84;4972795;28;20038;-67
2023/07/25 07:23:50;;;;;;;1.80;0.30;;;;;;;25.81;27.10;100452.66;4964605;28;20113;-71
2023/07/25 07:26:16;;;;;;;7.07;0.35;;;;;;;26.50;25.88;100454.72;4956704;28;20041;-70
2023/07/25 07:28:42;;;;;;;1.73;0.30;;;;;;;26.44;24.61;100444.69;4967285;28;20034;-70
2023/07/25 07:31:12;;;;;;;3.20;0.40;;;;;;;25.65;26.12;100458.06;4966153;28;20030;-71
2023/07/25 07:33:38;;;;;;;2.45;0.40;;;;;;;23.24;30.33;100465.56;4957648;28;20041;-70
2023/07/25 07:36:07;;;;;;;4.63;0.40;;;;;;;20.60;34.00;100469.22;4967952;28;20544;-71
2023/07/25 07:38:33;;;;;;;7.90;0.50;;;;;;;17.91;38.97;100471.09;4963525;28;20048;-70
2023/07/25 07:40:59;;;;;;;1.80;0.30;;;;;;;16.54;41.12;100483.00;4970113;28;20024;-70
2023/07/25 07:43:25;;;;;;;4.22;0.35;;;;;;;15.74;43.61;100491.16;4968478;28;21765;-71
2023/07/25 07:45:50;;;;;;;5.60;0.45;;;;;;;15.34;44.99;100496.47;4982245;28;20038;-68
2023/07/25 07:48:16;;;;;;;7.35;0.55;;;;;;;15.38;45.08;100493.53;4969511;28;20512;-70
2023/07/25 07:50:44;;;;;;;2.58;0.52;;;;;;;15.50;45.80;100497.13;4969632;28;20038;-71
2023/07/25 07:53:10;;;;;;;6.05;0.60;;;;;;;15.35;45.91;100499.00;4968763;28;20049;-70
2023/07/25 07:55:35;;;;;;;3.40;0.60;;;;;;;15.47;46.63;100507.03;4966747;28;20220;-69
2023/07/25 07:58:02;;;;;;;2.20;0.75;;;;;;;15.88;46.31;100506.84;4970027;28;20037;-69
2023/07/25 08:00:27;;;;;;;4.28;0.30;;;;;;;18.29;44.97;100511.41;4966425;28;20532;-70
2023/07/25 08:02:53;;;;;;;5.07;0.77;;;;;;;21.49;35.72;100501.03;4968551;28;20042;-69
2023/07/25 08:05:20;;;;;;;2.95;0.30;;;;;;;22.84;31.72;100512.19;4966266;28;20572;-70
2023/07/25 08:07:47;;;;;;;2.47;0.30;;;;;;;20.40;33.56;100516.94;4969389;28;20133;-70
2023/07/25 08:10:13;;;;;;;5.72;0.40;;;;;;;19.04;34.71;100514.19;4966801;28;20058;-70
2023/07/25 08:12:39;;;;;;;2.08;0.20;;;;;;;18.70;34.77;100521.38;4966254;28;20034;-70
2023/07/25 08:15:05;;;;;;;5.65;0.73;;;;;;;18.09;37.04;100513.75;4969073;28;20084;-70
2023/07/25 08:17:31;;;;;;;6.18;0.30;;;;;;;19.03;34.94;100527.56;4980769;28;20066;-70
2023/07/25 08:19:57;;;;;;;6.75;0.28;;;;;;;20.16;33.87;100527.00;4967938;28;20113;-70
2023/07/25 08:22:22;;;;;;;0.95;0.57;;;;;;;21.63;30.46;100524.53;4966507;28;20030;-70
2023/07/25 08:24:51;;;;;;;2.38;0.20;;;;;;;23.11;28.15;100521.09;4967333;28;20464;-70
2023/07/25 08:27:17;;;;;;;0.80;0.15;;;;;;;23.20;27.68;100523.69;4965048;28;20535;-70
2023/07/25 08:29:44;;;;;;;1.27;0.30;;;;;;;21.22;29.14;100523.84;4981858;28;20076;-70
2023/07/25 08:32:09;;;;;;;2.78;0.40;;;;;;;20.14;30.95;100529.78;4971043;28;20038;-71
2023/07/25 08:34:36;;;;;;;3.33;0.55;;;;;;;20.18;30.52;100530.38;4965440;28;20499;-71
2023/07/25 08:37:03;;;;;;;1.92;0.10;;;;;;;21.31;31.31;100530.97;4969684;28;20128;-70
2023/07/25 08:39:28;;;;;;;2.03;0.13;;;;;;;23.40;28.54;100527.03;4966684;28;20038;-71
2023/07/25 08:41:58;;;;;;;1.92;0.22;;;;;;;24.64;23.98;100520.66;4966972;28;20104;-71
2023/07/25 08:44:25;;;;;;;2.35;0.20;;;;;;;24.70;24.69;100519.97;4964452;28;20045;-70
2023/07/25 08:46:53;;;;;;;4.78;0.45;;;;;;;24.30;23.64;100518.78;4979910;28;20061;-71
2023/07/25 08:49:23;;;;;;;3.53;0.40;;;;;;;23.00;25.69;100523.00;4965851;28;20045;-71
2023/07/25 08:51:52;;;;;;;1.43;0.20;;;;;;;23.89;25.63;100526.59;4966910;28;20042;-71
2023/07/25 08:54:31;;;;;;;4.32;0.32;;;;;;;22.88;26.43;100531.38;4965669;28;20284;-71
2023/07/25 08:56:58;;;;;;;1.85;0.20;;;;;;;22.80;27.08;100529.44;4979881;28;20034;-70
2023/07/25 08:59:27;;;;;;;1.45;0.52;;;;;;;22.02;25.97;100527.09;4965616;28;20137;-70
2023/07/25 09:01:55;;;;;;;3.22;0.43;;;;;;;22.83;25.68;100528.31;4968037;28;20409;-70
2023/07/25 09:04:23;;;;;;;2.42;0.30;;;;;;;22.65;25.32;100528.25;4962614;28;20041;-70
2023/07/25 09:06:49;;;;;;;1.83;0.05;;;;;;;23.49;25.85;100529.78;4965720;28;20065;-70
2023/07/25 09:09:14;;;;;;;4.50;0.50;;;;;;;22.27;26.01;100530.09;4966500;28;20129;-71
2023/07/25 09:11:40;;;;;;;4.30;0.15;;;;;;;20.42;28.62;100540.69;4968396;28;20411;-70
2023/07/25 09:14:09;;;;;;;1.77;0.10;;;;;;;19.07;29.95;100545.72;4974520;28;20521;-69
2023/07/25 09:16:34;;;;;;;2.55;0.17;;;;;;;20.10;30.11;100545.13;4967871;28;20041;-70
2023/07/25 09:19:02;;;;;;;1.55;0.10;;;;;;;22.41;26.26;100536.81;4974006;28;20030;-69
2023/07/25 09:21:28;;;;;;;1.15;0.20;;;;;;;23.05;25.73;100533.19;4967928;28;20033;-69
2023/07/25 09:23:58;;;;;;;1.83;0.35;;;;;;;22.78;26.58;100544.75;4971956;28;20181;-69
2023/07/25 09:26:26;;;;;;;4.55;0.20;;;;;;;22.91;27.04;100541.72;4968604;28;20092;-70
2023/07/25 09:28:57;;;;;;;4.57;0.20;;;;;;;21.87;27.00;100553.34;4971122;28;20116;-69
2023/07/25 09:31:24;;;;;;;2.40;0.10;;;;;;;21.96;26.28;100552.47;4969464;28;20286;-70
2023/07/25 09:33:51;;;;;;;2.33;0.43;;;;;;;21.40;26.60;100550.56;4962910;28;20523;-69
2023/07/25 09:36:20;;;;;;;1.25;0.30;;;;;;;21.83;25.95;100548.44;4969846;28;20030;-69
2023/07/25 09:38:47;;;;;;;2.97;0.20;;;;;;;21.67;27.27;100541.06;4970292;28;20100;-70
2023/07/25 09:41:13;;;;;;;1.60;0.17;;;;;;;21.33;27.93;100546.75;4972464;28;20073;-70
2023/07/25 09:43:38;;;;;;;2.60;0.20;;;;;;;20.50;29.78;100554.94;4966363;28;20501;-70
2023/07/25 09:46:04;;;;;;;1.33;0.10;;;;;;;19.48;31.57;100553.91;4970315;28;20084;-70
2023/07/25 09:48:31;;;;;;;3.80;0.30;;;;;;;19.63;31.35;100557.09;4969602;28;20026;-71
2023/07/25 09:51:01;;;;;;;0.85;0.20;;;;;;;20.07;30.67;100555.16;4971312;28;20191;-69
2023/07/25 09:53:29;;;;;;;2.55;0.20;;;;;;;19.94;30.69;100554.53;4970417;28;20034;-70
2023/07/25 09:55:55;;;;;;;2.88;0.40;;;;;;;18.40;32.35;100562.50;4970603;28;20034;-68
2023/07/25 09:58:21;;;;;;;2.15;0.43;;;;;;;18.21;33.66;100567.56;4970134;28;20493;-70
2023/07/25 10:00:50;;;;;;;3.25;0.22;;;;;;;19.10;32.64;100560.53;4948308;28;20042;-70
2023/07/25 10:03:19;;;;;;;5.28;0.60;;;;;;;20.08;31.78;100562.13;4952164;28;20119;-71
2023/07/25 10:05:45;;;;;;;2.92;0.25;;;;;;;20.86;30.85;100558.03;4949443;28;20043;-68
2023/07/25 10:08:14;;;;;;;2.72;0.20;;;;;;;20.13;29.92;100565.25;4951815;28;20035;-71
2023/07/25 10:10:41;;;;;;;3.83;0.43;;;;;;;20.28;30.58;100560.44;4944838;28;20043;-69
2023/07/25 10:13:10;;;;;;;3.05;0.20;;;;;;;20.07;32.03;100561.28;4950180;28;20215;-69
2023/07/25 10:15:38;;;;;;;5.10;0.20;;;;;;;19.39;31.63;100552.00;4944372;28;20493;-69
2023/07/25 10:18:17;;;;;;;2.42;0.28;;;;;;;18.83;32.91;100560.91;4954727;28;20027;-69
2023/07/25 10:20:43;;;;;;;3.38;0.30;;;;;;;18.61;32.19;100567.09;4951551;28;20043;-69
2023/07/25 10:23:10;;;;;;;3.13;0.65;;;;;;;19.13;31.89;100575.34;4950079;28;20041;-69
2023/07/25 10:25:37;;;;;;;1.08;0.20;;;;;;;19.33;31.99;100563.13;4945006;28;20053;-69
2023/07/25 10:28:04;;;;;;;2.65;0.20;;;;;;;19.49;32.00;100567.00;4950030;28;20034;-69
2023/07/25 10:30:32;;;;;;;3.90;0.40;;;;;;;19.47;31.58;100566.28;4927124;28;20058;-68
2023/07/25 10:33:03;;;;;;;0.68;0.40;;;;;;;18.80;33.25;100575.22;4947960;28;20031;-69
2023/07/25 10:35:39;;;;;;;;;;;;;;;18.63;33.24;100567.78;4948437;28;20038;-69
2023/07/25 10:38:13;;;;;;;1.77;0.40;;;;;;;18.39;33.87;100568.78;4969902;28;19945;-69
2023/07/25 10:40:53;;;;;;;3.60;0.25;;;;;;;18.83;34.14;100575.00;4947123;28;20031;-69
2023/07/25 10:43:20;;;;;;;1.45;0.20;;;;;;;18.29;32.78;100572.25;4931530;28;20510;-70
2023/07/25 10:45:48;;;;;;;5.18;0.93;;;;;;;18.64;32.20;100574.78;4944388;28;20046;-70
2023/07/25 10:48:30;;;;;;;1.83;0.10;;;;;;;20.15;30.34;100567.75;4944390;28;20046;-69
2023/07/25 10:50:56;;;;;;;;;;;;;;;21.03;29.40;100561.00;4947638;28;20062;-69
2023/07/25 10:53:22;;;;;;;2.17;0.30;;;;;;;19.87;29.76;100564.81;4951086;28;19914;-69
2023/07/25 10:56:03;;;;;;;6.50;0.28;;;;;;;19.23;32.21;100571.81;4966500;28;20050;-69
2023/07/25 10:58:32;;;;;;;0.93;0.10;;;;;;;18.93;32.20;100579.59;4969144;28;20596;-69
2023/07/25 11:00:58;;;;;;;1.52;0.10;;;;;;;18.91;32.58;100581.53;4949524;28;20038;-69
2023/07/25 11:03:28;;;;;;;3.20;0.40;;;;;;;19.32;32.33;100580.81;4947977;28;20039;-70
2023/07/25 11:06:20;;;;;;;2.92;0.40;;;;;;;20.51;32.43;100569.09;4949704;28;20130;-69
2023/07/25 11:08:45;;;;;;;1.85;0.20;;;;;;;21.17;29.84;100573.88;4944084;28;20042;-69
2023/07/25 11:11:13;;;;;;;2.47;0.47;;;;;;;20.62;29.62;100570.78;4952092;28;20031;-69
2023/07/25 11:13:43;;;;;;;3.50;0.15;;;;;;;20.91;28.85;100577.06;4942590;28;20033;-70
2023/07/25 11:16:10;;;;;;;1.35;0.30;;;;;;;20.92;30.03;100568.13;4952635;28;20027;-69
2023/07/25 11:18:47;;;;;;;1.70;0.70;;;;;;;21.27;28.77;100564.13;4938726;28;20049;-69
2023/07/25 11:21:13;;;;;;;1.75;0.57;;;;;;;21.49;27.91;100571.00;4972171;28;20122;-69
2023/07/25 11:23:38;;;;;;;2.47;0.60;;;;;;;20.65;28.21;100559.91;4967029;28;20054;-69